Terminal Aerodrome Forecast
Issued by NWS Cleveland, OH

Home | Current Version | Previous Version | Graphics & Text | Print | Product List | Glossary On
Versions: 1 2 3 4 5 6 7 8 9 10 11 12 13 14 15 16 17 18 19 20 21 22 23 24
000
FTUS41 KCLE 282300
TAFMFD
TAF
KMFD 282339Z 2900/2924 VRB03KT P6SM SCT120 BKN250
     FM290700 00000KT 4SM BR SCT250
     FM290900 00000KT 1SM BR SCT250
      TEMPO 2909/2911 3/4SM BR SKC
     FM291400 29005KT P6SM SCT040 SCT200=

USA.gov is the U.S. government's official web portal to all federal, state and local government web resources and services.